Time;durP1;ratioP1;P1;durP2;ratioP2;P2;SDS_P1;SDS_P2;PMS_P1;PMS_P2;Temp;Humidity;BMP_temperature;BMP_pressure;BME280_temperature;BME280_humidity;BME280_pressure;Samples;Min_cycle;Max_cycle;Signal;HPM_P1;HPM_P2
2022/07/06 00:01:39;;;;;;;2.17;1.57;;;;;;;;;;5010292;28;20034;-62
2022/07/06 00:04:06;;;;;;;3.57;1.70;;;;;;;;;;5010307;28;20469;-62
2022/07/06 00:06:33;;;;;;;2.60;1.70;;;;;;;;;;5015551;28;20030;-62
2022/07/06 00:08:59;;;;;;;2.80;1.47;;;;;;;;;;5015490;28;20030;-62
2022/07/06 00:11:26;;;;;;;1.97;1.47;;;;;;;;;;5015623;28;20026;-62
2022/07/06 00:13:53;;;;;;;2.93;1.70;;;;;;;;;;5015130;28;20022;-62
2022/07/06 00:16:20;;;;;;;5.00;1.57;;;;;;;;;;5015596;28;20036;-62
2022/07/06 00:18:47;;;;;;;3.30;1.60;;;;;;;;;;5010162;28;20042;-62
2022/07/06 00:21:13;;;;;;;3.00;1.33;;;;;;;;;;5010226;28;20025;-62
2022/07/06 00:23:40;;;;;;;2.43;1.87;;;;;;;;;;5010304;28;20432;-61
2022/07/06 00:26:07;;;;;;;3.80;2.00;;;;;;;;;;5010197;28;20061;-63
2022/07/06 00:28:33;;;;;;;3.33;2.13;;;;;;;;;;5014397;28;20021;-62
2022/07/06 00:31:00;;;;;;;7.57;2.50;;;;;;;;;;5015124;28;20026;-62
2022/07/06 00:33:27;;;;;;;6.47;1.97;;;;;;;;;;5015355;28;20096;-62
2022/07/06 00:35:53;;;;;;;1.00;0.83;;;;;;;;;;5014944;28;20481;-62
2022/07/06 00:38:20;;;;;;;1.70;1.23;;;;;;;;;;5014922;28;20057;-62
2022/07/06 00:40:46;;;;;;;2.40;1.67;;;;;;;;;;5010324;28;20018;-62
2022/07/06 00:43:13;;;;;;;3.17;1.67;;;;;;;;;;5008729;28;20030;-62
2022/07/06 00:45:40;;;;;;;2.27;1.80;;;;;;;;;;5009916;28;20517;-62
2022/07/06 00:48:07;;;;;;;9.63;1.77;;;;;;;;;;5009934;28;20025;-62
2022/07/06 00:50:34;;;;;;;5.10;2.30;;;;;;;;;;5013674;28;20080;-62
2022/07/06 00:53:02;;;;;;;1.87;1.20;;;;;;;;;;5014787;28;20030;-62
2022/07/06 00:55:30;;;;;;;4.10;2.53;;;;;;;;;;5014587;28;20049;-62
2022/07/06 00:57:57;;;;;;;3.30;1.27;;;;;;;;;;5014317;28;20034;-62
2022/07/06 01:00:25;;;;;;;1.63;0.80;;;;;;;;;;5013953;28;20022;-61
2022/07/06 01:02:53;;;;;;;3.37;1.80;;;;;;;;;;5009961;28;20087;-62
2022/07/06 01:05:20;;;;;;;5.50;1.67;;;;;;;;;;5009592;28;20029;-63
2022/07/06 01:07:47;;;;;;;6.13;1.87;;;;;;;;;;5009248;28;20026;-66
2022/07/06 01:10:15;;;;;;;10.10;3.20;;;;;;;;;;5009463;28;20040;-62
2022/07/06 01:12:42;;;;;;;4.07;1.87;;;;;;;;;;5012531;28;20029;-62
2022/07/06 01:15:11;;;;;;;2.90;1.10;;;;;;;;;;5014412;28;20018;-62
2022/07/06 01:17:39;;;;;;;3.17;1.87;;;;;;;;;;5014368;28;20037;-61
2022/07/06 01:20:09;;;;;;;2.57;0.83;;;;;;;;;;5014387;28;20045;-61
2022/07/06 01:22:35;;;;;;;14.13;1.47;;;;;;;;;;5014204;28;20041;-61
2022/07/06 01:25:02;;;;;;;7.67;2.20;;;;;;;;;;5009952;28;20018;-61
2022/07/06 01:27:29;;;;;;;4.27;1.27;;;;;;;;;;5008957;28;20037;-62
2022/07/06 01:29:56;;;;;;;3.10;1.10;;;;;;;;;;5008185;28;20456;-61
2022/07/06 01:32:22;;;;;;;3.90;1.17;;;;;;;;;;5008704;28;20389;-61
2022/07/06 01:34:49;;;;;;;1.47;0.87;;;;;;;;;;5011982;28;20022;-61
2022/07/06 01:37:16;;;;;;;0.80;0.77;;;;;;;;;;5013599;28;20109;-61
2022/07/06 01:39:42;;;;;;;15.27;6.10;;;;;;;;;;5013890;28;20072;-61
2022/07/06 01:42:09;;;;;;;7.53;2.90;;;;;;;;;;5013996;28;20029;-61
2022/07/06 01:44:36;;;;;;;19.37;3.70;;;;;;;;;;5013854;28;20098;-61
2022/07/06 01:47:02;;;;;;;17.27;3.67;;;;;;;;;;5010193;28;20033;-60
2022/07/06 01:49:29;;;;;;;24.73;3.30;;;;;;;;;;5008013;28;20054;-61
2022/07/06 01:51:56;;;;;;;4.00;2.60;;;;;;;;;;5008254;28;20025;-62
2022/07/06 01:54:22;;;;;;;7.07;4.80;;;;;;;;;;5008315;28;20389;-61
2022/07/06 01:56:49;;;;;;;13.00;4.77;;;;;;;;;;5010778;28;20030;-62
2022/07/06 01:59:16;;;;;;;3.77;2.13;;;;;;;;;;5013506;28;20026;-61
2022/07/06 02:01:42;;;;;;;7.17;3.67;;;;;;;;;;5013122;28;20060;-61
2022/07/06 02:04:09;;;;;;;3.77;2.87;;;;;;;;;;5013479;28;20022;-60
2022/07/06 02:06:35;;;;;;;18.90;2.03;;;;;;;;;;5013468;28;20026;-61
2022/07/06 02:09:02;;;;;;;7.13;2.27;;;;;;;;;;5010762;28;20358;-61
2022/07/06 02:11:31;;;;;;;3.70;2.10;;;;;;;;;;5008012;28;20050;-61
2022/07/06 02:13:58;;;;;;;5.30;2.07;;;;;;;;;;5008091;28;20025;-61
2022/07/06 02:16:25;;;;;;;5.90;3.23;;;;;;;;;;5007733;28;20121;-60
2022/07/06 02:18:51;;;;;;;2.67;1.60;;;;;;;;;;4989797;28;20366;-61
2022/07/06 02:21:18;;;;;;;4.23;2.37;;;;;;;;;;4993680;28;20113;-60
2022/07/06 02:23:44;;;;;;;4.67;1.80;;;;;;;;;;4993562;28;20034;-60
2022/07/06 02:26:11;;;;;;;3.93;2.77;;;;;;;;;;4993503;28;20030;-62
2022/07/06 02:28:38;;;;;;;5.50;1.80;;;;;;;;;;4993493;28;20098;-61
2022/07/06 02:31:04;;;;;;;16.13;3.20;;;;;;;;;;4995547;28;20088;-61
2022/07/06 02:33:31;;;;;;;4.50;2.40;;;;;;;;;;5007923;28;20069;-60
2022/07/06 02:35:58;;;;;;;2.83;1.77;;;;;;;;;;5007414;28;20026;-61
2022/07/06 02:38:25;;;;;;;3.43;2.30;;;;;;;;;;5007611;28;20033;-61
2022/07/06 02:40:51;;;;;;;4.07;2.53;;;;;;;;;;5009056;28;20033;-60
2022/07/06 02:43:18;;;;;;;3.63;2.87;;;;;;;;;;5012578;28;20029;-60
2022/07/06 02:45:45;;;;;;;2.77;2.10;;;;;;;;;;5012901;28;20072;-60
2022/07/06 02:48:11;;;;;;;3.83;2.20;;;;;;;;;;5012654;28;20026;-61
2022/07/06 02:50:38;;;;;;;20.90;3.30;;;;;;;;;;5012925;28;20145;-60
2022/07/06 02:53:04;;;;;;;4.93;2.20;;;;;;;;;;5010425;28;20516;-61
2022/07/06 02:55:31;;;;;;;4.23;2.23;;;;;;;;;;5007778;28;20060;-61
2022/07/06 02:57:58;;;;;;;6.20;2.07;;;;;;;;;;5007400;28;20042;-60
2022/07/06 03:00:25;;;;;;;5.20;2.30;;;;;;;;;;5007470;28;20029;-61
2022/07/06 03:02:51;;;;;;;3.77;1.97;;;;;;;;;;5008079;28;20026;-60
2022/07/06 03:05:18;;;;;;;7.30;2.57;;;;;;;;;;5012151;28;20213;-60
2022/07/06 03:07:44;;;;;;;3.30;2.30;;;;;;;;;;5012101;28;20026;-60
2022/07/06 03:10:11;;;;;;;5.60;2.00;;;;;;;;;;5011846;28;20083;-60
2022/07/06 03:12:38;;;;;;;8.53;2.10;;;;;;;;;;5012573;28;20033;-60
2022/07/06 03:15:05;;;;;;;3.47;1.80;;;;;;;;;;5011527;28;20022;-61
2022/07/06 03:17:31;;;;;;;3.00;1.63;;;;;;;;;;5007165;28;20037;-60
2022/07/06 03:19:58;;;;;;;4.80;2.53;;;;;;;;;;5007155;28;20110;-61
2022/07/06 03:22:25;;;;;;;5.60;2.57;;;;;;;;;;5007203;28;20041;-61
2022/07/06 03:24:51;;;;;;;2.63;1.93;;;;;;;;;;5007299;28;20037;-60
2022/07/06 03:27:18;;;;;;;5.63;2.50;;;;;;;;;;5011749;28;20060;-60
2022/07/06 03:29:45;;;;;;;4.83;2.30;;;;;;;;;;5012097;28;20026;-60
2022/07/06 03:32:11;;;;;;;3.83;2.13;;;;;;;;;;5012395;28;20026;-60
2022/07/06 03:34:38;;;;;;;2.20;1.60;;;;;;;;;;5012378;28;20101;-60
2022/07/06 03:37:05;;;;;;;2.27;1.23;;;;;;;;;;5011795;28;20034;-61
2022/07/06 03:39:32;;;;;;;1.40;1.17;;;;;;;;;;5006794;28;20429;-60
2022/07/06 03:41:59;;;;;;;2.73;1.83;;;;;;;;;;5007097;28;20033;-60
2022/07/06 03:44:25;;;;;;;3.23;2.47;;;;;;;;;;5006649;28;20100;-60
2022/07/06 03:46:55;;;;;;;20.47;2.20;;;;;;;;;;5006971;28;20029;-62
2022/07/06 03:49:24;;;;;;;8.13;2.37;;;;;;;;;;5012172;28;20084;-60
2022/07/06 03:51:51;;;;;;;5.07;2.30;;;;;;;;;;5011947;28;20034;-60
2022/07/06 03:54:17;;;;;;;2.93;2.13;;;;;;;;;;5011792;28;20032;-60
2022/07/06 03:56:44;;;;;;;8.80;2.70;;;;;;;;;;5012091;28;20026;-61
2022/07/06 03:59:11;;;;;;;3.87;2.10;;;;;;;;;;5011712;28;20049;-60
2022/07/06 04:01:37;;;;;;;2.43;1.90;;;;;;;;;;5006329;28;20500;-60
2022/07/06 04:04:04;;;;;;;3.30;2.43;;;;;;;;;;5006660;28;20050;-60
2022/07/06 04:06:31;;;;;;;3.17;2.13;;;;;;;;;;5006688;28;20113;-60
2022/07/06 04:08:57;;;;;;;6.53;1.97;;;;;;;;;;5006597;28;20018;-61
2022/07/06 04:11:24;;;;;;;6.30;2.57;;;;;;;;;;5011426;28;20097;-61
2022/07/06 04:13:50;;;;;;;6.33;2.33;;;;;;;;;;5012014;28;20038;-60
2022/07/06 04:16:17;;;;;;;3.07;1.90;;;;;;;;;;5011166;28;20026;-60
2022/07/06 04:18:44;;;;;;;1.50;1.23;;;;;;;;;;5014692;28;20038;-60
2022/07/06 04:21:10;;;;;;;2.07;1.53;;;;;;;;;;5015438;28;20030;-60
2022/07/06 04:23:37;;;;;;;1.57;0.90;;;;;;;;;;5010315;28;20028;-60
2022/07/06 04:26:04;;;;;;;0.90;0.77;;;;;;;;;;5010114;28;20025;-61
2022/07/06 04:28:31;;;;;;;3.50;2.47;;;;;;;;;;5009183;28;20076;-61
2022/07/06 04:30:57;;;;;;;5.30;2.43;;;;;;;;;;5010146;28;20029;-60
2022/07/06 04:33:24;;;;;;;2.57;1.40;;;;;;;;;;5013688;28;20026;-60
2022/07/06 04:35:51;;;;;;;2.13;1.37;;;;;;;;;;5015002;28;20033;-60
2022/07/06 04:38:17;;;;;;;19.10;2.43;;;;;;;;;;5015266;28;20061;-60
2022/07/06 04:40:46;;;;;;;3.40;1.93;;;;;;;;;;5015199;28;20034;-60
2022/07/06 04:43:13;;;;;;;2.90;1.53;;;;;;;;;;5015029;28;20038;-60
2022/07/06 04:45:40;;;;;;;4.33;2.50;;;;;;;;;;5010430;28;20057;-60
2022/07/06 04:48:08;;;;;;;4.13;2.07;;;;;;;;;;5009614;28;20053;-60
2022/07/06 04:50:34;;;;;;;6.77;2.07;;;;;;;;;;5009117;28;20535;-60
2022/07/06 04:53:01;;;;;;;5.27;2.33;;;;;;;;;;5009047;28;20362;-61
2022/07/06 04:55:28;;;;;;;3.70;2.00;;;;;;;;;;5013340;28;20148;-60
2022/07/06 04:57:55;;;;;;;2.10;1.17;;;;;;;;;;5014257;28;20022;-61
2022/07/06 05:00:21;;;;;;;5.83;2.57;;;;;;;;;;5014949;28;20026;-60
2022/07/06 05:02:48;;;;;;;3.37;1.90;;;;;;;;;;5014724;28;20481;-61
2022/07/06 05:05:15;;;;;;;3.07;1.87;;;;;;;;;;5013876;28;20105;-60
2022/07/06 05:07:41;;;;;;;1.37;1.20;;;;;;;;;;5010582;28;20026;-61
2022/07/06 05:10:09;;;;;;;2.53;1.83;;;;;;;;;;5009136;28;20568;-61
2022/07/06 05:12:36;;;;;;;29.00;2.80;;;;;;;;;;5009389;28;20037;-60
2022/07/06 05:15:02;;;;;;;3.10;2.27;;;;;;;;;;5009097;28;20022;-60
2022/07/06 05:17:29;;;;;;;10.83;2.37;;;;;;;;;;5012221;28;20022;-60
2022/07/06 05:19:56;;;;;;;3.23;2.60;;;;;;;;;;5014230;28;20425;-60
2022/07/06 05:22:23;;;;;;;3.47;1.87;;;;;;;;;;5014161;28;20393;-60
2022/07/06 05:24:49;;;;;;;3.70;2.40;;;;;;;;;;5014223;28;20026;-60
2022/07/06 05:27:16;;;;;;;4.27;2.20;;;;;;;;;;5013714;28;20022;-60
2022/07/06 05:29:42;;;;;;;5.97;2.30;;;;;;;;;;5010206;28;20033;-61
2022/07/06 05:32:09;;;;;;;4.60;2.43;;;;;;;;;;5008927;28;20014;-60
2022/07/06 05:34:37;;;;;;;2.67;1.73;;;;;;;;;;5008653;28;20451;-60
2022/07/06 05:37:04;;;;;;;3.53;2.63;;;;;;;;;;5008556;28;20125;-60
2022/07/06 05:39:31;;;;;;;2.30;1.37;;;;;;;;;;5011452;28;20026;-60
2022/07/06 05:41:57;;;;;;;7.47;3.17;;;;;;;;;;5013978;28;20495;-60
2022/07/06 05:44:24;;;;;;;9.43;1.97;;;;;;;;;;5013843;28;20048;-60
2022/07/06 05:46:51;;;;;;;3.87;1.97;;;;;;;;;;5013973;28;20026;-61
2022/07/06 05:52:02;;;;;;;4.40;1.45;;;;;;;;;;4990506;28;20100;-60
2022/07/06 05:54:29;;;;;;;2.57;1.73;;;;;;;;;;4989013;28;20119;-61
2022/07/06 05:56:56;;;;;;;3.57;1.97;;;;;;;;;;4988745;28;20038;-60
2022/07/06 05:59:22;;;;;;;13.77;2.57;;;;;;;;;;4989033;28;20026;-60
2022/07/06 06:01:49;;;;;;;3.90;2.97;;;;;;;;;;5000994;28;20076;-61
2022/07/06 06:04:16;;;;;;;3.53;2.50;;;;;;;;;;5013100;28;20026;-60
2022/07/06 06:06:42;;;;;;;4.87;2.27;;;;;;;;;;5012974;28;20025;-61
2022/07/06 06:09:09;;;;;;;3.63;2.13;;;;;;;;;;5013728;28;20105;-60
2022/07/06 06:11:36;;;;;;;8.17;2.13;;;;;;;;;;5013219;28;20096;-60
2022/07/06 06:14:03;;;;;;;4.37;2.13;;;;;;;;;;5010310;28;20538;-60
2022/07/06 06:16:30;;;;;;;2.47;1.40;;;;;;;;;;5008091;28;20034;-60
2022/07/06 06:18:57;;;;;;;6.87;2.93;;;;;;;;;;5007692;28;20034;-61
2022/07/06 06:21:23;;;;;;;4.80;2.03;;;;;;;;;;5007978;28;20029;-60
2022/07/06 06:23:51;;;;;;;7.37;3.00;;;;;;;;;;5009731;28;20034;-60
2022/07/06 06:26:17;;;;;;;2.87;1.73;;;;;;;;;;5013187;28;20373;-60
2022/07/06 06:28:44;;;;;;;6.43;2.47;;;;;;;;;;5013026;28;20021;-60
2022/07/06 06:31:11;;;;;;;7.97;2.67;;;;;;;;;;5013072;28;20152;-60
2022/07/06 06:33:38;;;;;;;3.80;2.43;;;;;;;;;;5013014;28;20036;-60
2022/07/06 06:36:04;;;;;;;5.73;2.80;;;;;;;;;;5010072;28;20026;-62
2022/07/06 06:38:31;;;;;;;3.73;2.27;;;;;;;;;;5007658;28;20037;-60
2022/07/06 06:40:58;;;;;;;4.20;2.20;;;;;;;;;;5006376;28;20030;-60
2022/07/06 06:43:24;;;;;;;4.07;2.63;;;;;;;;;;5007717;28;20389;-60
2022/07/06 06:45:51;;;;;;;2.60;2.13;;;;;;;;;;5009505;28;20026;-60
2022/07/06 06:48:18;;;;;;;2.17;1.60;;;;;;;;;;5011597;28;20038;-61
2022/07/06 06:50:46;;;;;;;2.13;1.73;;;;;;;;;;5012907;28;20084;-60
2022/07/06 06:53:12;;;;;;;3.10;2.07;;;;;;;;;;5012610;28;20033;-60
2022/07/06 06:55:39;;;;;;;5.87;3.77;;;;;;;;;;5012512;28;20084;-60
2022/07/06 06:58:06;;;;;;;1.97;1.47;;;;;;;;;;5010345;28;20045;-60
2022/07/06 07:00:32;;;;;;;1.93;1.63;;;;;;;;;;5007394;28;20037;-60
2022/07/06 07:02:59;;;;;;;3.83;2.43;;;;;;;;;;5007304;28;20025;-60
2022/07/06 07:05:26;;;;;;;3.43;1.77;;;;;;;;;;5007381;28;20032;-60
2022/07/06 07:07:54;;;;;;;3.70;2.13;;;;;;;;;;5008950;28;20030;-60
2022/07/06 07:10:21;;;;;;;2.03;1.77;;;;;;;;;;5012020;28;20025;-61
2022/07/06 07:12:48;;;;;;;3.60;2.00;;;;;;;;;;4992607;28;20062;-60
2022/07/06 07:15:16;;;;;;;2.40;1.73;;;;;;;;;;4992953;28;20034;-60
2022/07/06 07:17:43;;;;;;;6.53;2.67;;;;;;;;;;4992834;28;20065;-61
2022/07/06 07:20:10;;;;;;;6.00;1.63;;;;;;;;;;4991258;28;20412;-61
2022/07/06 07:22:37;;;;;;;5.63;2.47;;;;;;;;;;4987622;28;20389;-60
2022/07/06 07:25:04;;;;;;;4.00;2.70;;;;;;;;;;4987542;28;20022;-60
2022/07/06 07:27:30;;;;;;;4.83;2.63;;;;;;;;;;4987292;28;20057;-60
2022/07/06 07:29:57;;;;;;;6.23;2.50;;;;;;;;;;4988622;28;20034;-60
2022/07/06 07:32:24;;;;;;;3.83;2.03;;;;;;;;;;4992642;28;20042;-60
2022/07/06 07:34:50;;;;;;;6.33;2.33;;;;;;;;;;4996046;28;20421;-60
2022/07/06 07:37:17;;;;;;;4.37;2.47;;;;;;;;;;5012346;28;20366;-60
2022/07/06 07:39:44;;;;;;;6.10;2.13;;;;;;;;;;5012242;28;20057;-60
2022/07/06 07:42:10;;;;;;;12.63;2.00;;;;;;;;;;5010887;28;20022;-60
2022/07/06 07:44:38;;;;;;;2.37;1.60;;;;;;;;;;5006314;28;20040;-60
2022/07/06 07:47:05;;;;;;;4.27;2.60;;;;;;;;;;5006758;28;20040;-61
2022/07/06 07:49:32;;;;;;;2.33;1.17;;;;;;;;;;5007003;28;20145;-60
2022/07/06 07:51:59;;;;;;;3.70;2.87;;;;;;;;;;5007760;28;20026;-60
2022/07/06 07:54:25;;;;;;;3.70;2.07;;;;;;;;;;5015962;28;20385;-60
2022/07/06 07:56:52;;;;;;;5.83;1.83;;;;;;;;;;5015920;28;20030;-60
2022/07/06 07:59:19;;;;;;;4.67;2.50;;;;;;;;;;5015401;28;20037;-60
2022/07/06 08:01:45;;;;;;;3.73;2.03;;;;;;;;;;5015840;28;20018;-60
2022/07/06 08:04:12;;;;;;;2.50;1.30;;;;;;;;;;5015029;28;20404;-60
2022/07/06 08:06:39;;;;;;;8.40;2.93;;;;;;;;;;5010568;28;20026;-60
2022/07/06 08:09:07;;;;;;;43.10;4.43;;;;;;;;;;5010487;28;20388;-61
2022/07/06 08:11:36;;;;;;;4.40;2.97;;;;;;;;;;5010260;28;20037;-60
2022/07/06 08:14:03;;;;;;;4.13;2.30;;;;;;;;;;5010486;28;20097;-60
2022/07/06 08:16:30;;;;;;;5.17;3.00;;;;;;;;;;5015336;28;20030;-60
2022/07/06 08:18:57;;;;;;;4.80;2.83;;;;;;;;;;5015497;28;20034;-61
2022/07/06 08:21:23;;;;;;;7.53;2.93;;;;;;;;;;5015535;28;20026;-60
2022/07/06 08:23:50;;;;;;;5.70;2.73;;;;;;;;;;5015203;28;20030;-60
2022/07/06 08:26:17;;;;;;;10.57;5.17;;;;;;;;;;5015021;28;20022;-60
2022/07/06 08:28:43;;;;;;;12.13;3.17;;;;;;;;;;5010056;28;20025;-61
2022/07/06 08:31:10;;;;;;;7.93;2.57;;;;;;;;;;5009767;28;20018;-60
2022/07/06 08:33:37;;;;;;;10.50;3.53;;;;;;;;;;5009717;28;20079;-60
2022/07/06 08:36:04;;;;;;;2.93;2.20;;;;;;;;;;5009647;28;20615;-60
2022/07/06 08:38:31;;;;;;;3.40;2.30;;;;;;;;;;5014859;28;20053;-60
2022/07/06 08:40:58;;;;;;;7.30;2.60;;;;;;;;;;5014768;28;20496;-60
2022/07/06 08:43:25;;;;;;;3.93;2.60;;;;;;;;;;5015127;28;20018;-60
2022/07/06 08:45:54;;;;;;;5.30;2.33;;;;;;;;;;5014923;28;20036;-60
2022/07/06 08:48:23;;;;;;;8.37;3.00;;;;;;;;;;5014396;28;20075;-60
2022/07/06 08:50:50;;;;;;;4.57;2.70;;;;;;;;;;5008999;28;20045;-60
2022/07/06 08:53:19;;;;;;;8.57;2.83;;;;;;;;;;5009385;28;20038;-60
2022/07/06 08:55:46;;;;;;;5.87;2.23;;;;;;;;;;5009135;28;20025;-60
2022/07/06 08:58:13;;;;;;;5.33;1.97;;;;;;;;;;5009484;28;20048;-60
2022/07/06 09:00:40;;;;;;;7.70;3.27;;;;;;;;;;5014381;28;20439;-60
2022/07/06 09:03:08;;;;;;;2.07;1.60;;;;;;;;;;5014277;28;20026;-59
2022/07/06 09:05:35;;;;;;;8.13;2.93;;;;;;;;;;5013878;28;20578;-60
2022/07/06 09:08:02;;;;;;;3.17;2.27;;;;;;;;;;5014620;28;20386;-61
2022/07/06 09:10:29;;;;;;;5.10;2.63;;;;;;;;;;5014510;28;20100;-60
2022/07/06 09:13:03;;;;;;;10.87;2.43;;;;;;;;;;5009178;28;20330;-60
2022/07/06 09:15:30;;;;;;;2.97;1.40;;;;;;;;;;5009185;28;20106;-60
2022/07/06 09:17:57;;;;;;;4.77;1.97;;;;;;;;;;5008869;28;20030;-60
2022/07/06 09:20:24;;;;;;;3.70;2.57;;;;;;;;;;5008818;28;20060;-60
2022/07/06 09:22:51;;;;;;;9.47;3.70;;;;;;;;;;5013738;28;20029;-60
2022/07/06 09:25:17;;;;;;;4.00;2.10;;;;;;;;;;5014322;28;20384;-60
2022/07/06 09:27:49;;;;;;;2.87;2.03;;;;;;;;;;5014150;28;20022;-61
2022/07/06 09:30:16;;;;;;;2.53;1.90;;;;;;;;;;5014326;28;20021;-60
2022/07/06 09:32:45;;;;;;;9.93;3.57;;;;;;;;;;5013981;28;20469;-60
2022/07/06 09:35:22;;;;;;;3.60;1.87;;;;;;;;;;5008700;28;20025;-61
2022/07/06 09:38:00;;;;;;;2.60;2.07;;;;;;;;;;5008808;28;20096;-61
2022/07/06 09:40:27;;;;;;;3.03;1.90;;;;;;;;;;5008917;28;20072;-60
2022/07/06 09:43:07;;;;;;;5.77;2.17;;;;;;;;;;5008329;28;20029;-60
2022/07/06 09:45:36;;;;;;;2.73;1.87;;;;;;;;;;5013493;28;20030;-60
2022/07/06 09:48:26;;;;;;;3.07;2.07;;;;;;;;;;5013747;28;20022;-60
2022/07/06 09:50:54;;;;;;;5.60;1.77;;;;;;;;;;5003889;28;20052;-60
2022/07/06 09:53:21;;;;;;;4.40;2.30;;;;;;;;;;5013540;28;20041;-60
2022/07/06 09:55:49;;;;;;;20.57;3.80;;;;;;;;;;5012059;28;20528;-60
2022/07/06 09:58:17;;;;;;;2.37;1.63;;;;;;;;;;5008314;28;20133;-60
2022/07/06 10:00:47;;;;;;;3.53;2.40;;;;;;;;;;5008100;28;20053;-61
2022/07/06 10:03:14;;;;;;;3.50;1.63;;;;;;;;;;5008067;28;20030;-60
2022/07/06 10:05:49;;;;;;;2.57;1.83;;;;;;;;;;5009545;28;20076;-60
2022/07/06 10:08:17;;;;;;;6.35;1.95;;;;;;;;;;5013126;28;20034;-61
2022/07/06 10:10:44;;;;;;;4.97;2.60;;;;;;;;;;5013509;28;20092;-60
2022/07/06 10:13:11;;;;;;;1.67;1.40;;;;;;;;;;5013592;28;20026;-60
2022/07/06 10:15:39;;;;;;;3.43;1.27;;;;;;;;;;5013354;28;20025;-60
2022/07/06 10:18:07;;;;;;;3.63;2.53;;;;;;;;;;5010771;28;20069;-61
2022/07/06 10:20:36;;;;;;;4.33;2.50;;;;;;;;;;5008141;28;20029;-60
2022/07/06 10:23:04;;;;;;;8.00;2.80;;;;;;;;;;5008114;28;20022;-60
2022/07/06 10:25:32;;;;;;;3.07;2.07;;;;;;;;;;5007886;28;20022;-60
2022/07/06 10:27:59;;;;;;;3.93;2.37;;;;;;;;;;5009285;28;20025;-60
2022/07/06 10:30:26;;;;;;;8.23;3.40;;;;;;;;;;5012587;28;20025;-60
2022/07/06 10:32:53;;;;;;;4.87;2.60;;;;;;;;;;5012537;28;20533;-60
2022/07/06 10:35:20;;;;;;;2.60;1.70;;;;;;;;;;5012925;28;20108;-60
2022/07/06 10:38:03;;;;;;;2.63;1.90;;;;;;;;;;5012973;28;20600;-60
2022/07/06 10:43:18;;;;;;;2.93;1.93;;;;;;;;;;5007834;28;20072;-60
2022/07/06 10:45:45;;;;;;;7.63;2.13;;;;;;;;;;5007548;28;20026;-59
2022/07/06 10:48:11;;;;;;;6.37;2.80;;;;;;;;;;5007535;28;20029;-60
2022/07/06 10:50:39;;;;;;;4.27;1.80;;;;;;;;;;5009942;28;20073;-60
2022/07/06 10:53:12;;;;;;;5.57;2.70;;;;;;;;;;5012566;28;20030;-60
2022/07/06 10:55:40;;;;;;;4.63;2.33;;;;;;;;;;5012380;28;20105;-60
2022/07/06 10:58:07;;;;;;;3.27;1.83;;;;;;;;;;5012653;28;20034;-60
2022/07/06 11:00:55;;;;;;;4.83;2.30;;;;;;;;;;5012626;28;20116;-60
2022/07/06 11:03:41;;;;;;;4.23;2.37;;;;;;;;;;5008647;28;20018;-60
2022/07/06 11:06:15;;;;;;;9.73;2.70;;;;;;;;;;5007256;28;20034;-59
2022/07/06 11:08:44;;;;;;;4.17;2.53;;;;;;;;;;5007011;28;20095;-60
2022/07/06 11:11:12;;;;;;;2.40;1.50;;;;;;;;;;5007214;28;20018;-60
2022/07/06 11:14:05;;;;;;;2.57;1.97;;;;;;;;;;5011427;28;20488;-60
2022/07/06 11:16:37;;;;;;;2.63;1.90;;;;;;;;;;5008615;28;20042;-60
2022/07/06 11:19:11;;;;;;;2.07;1.27;;;;;;;;;;5012367;28;20038;-60
2022/07/06 11:21:57;;;;;;;6.27;2.07;;;;;;;;;;5012692;28;20053;-60
2022/07/06 11:24:30;;;;;;;2.70;1.93;;;;;;;;;;5011357;28;20435;-61
2022/07/06 11:26:58;;;;;;;3.80;1.60;;;;;;;;;;5007278;28;20128;-59
2022/07/06 11:29:25;;;;;;;3.47;1.87;;;;;;;;;;5011087;28;20083;-59
2022/07/06 11:31:53;;;;;;;1.77;1.13;;;;;;;;;;5011152;28;20030;-60
2022/07/06 11:34:21;;;;;;;2.30;1.70;;;;;;;;;;5011628;28;20033;-59
2022/07/06 11:36:48;;;;;;;2.70;1.07;;;;;;;;;;5016207;28;20033;-59
2022/07/06 11:39:15;;;;;;;0.83;0.80;;;;;;;;;;5016200;28;20112;-59
2022/07/06 11:41:42;;;;;;;1.83;1.33;;;;;;;;;;5016273;28;20477;-60
2022/07/06 11:44:09;;;;;;;0.83;0.70;;;;;;;;;;5016086;28;20133;-60
2022/07/06 11:46:36;;;;;;;1.47;1.10;;;;;;;;;;5014961;28;20033;-60
2022/07/06 11:49:07;;;;;;;2.17;1.10;;;;;;;;;;5010542;28;20034;-60
2022/07/06 11:51:35;;;;;;;1.03;0.70;;;;;;;;;;5010810;28;20029;-60
2022/07/06 11:54:03;;;;;;;0.87;0.80;;;;;;;;;;5010839;28;20029;-60
2022/07/06 11:56:30;;;;;;;1.13;0.97;;;;;;;;;;5011140;28;20041;-60
2022/07/06 11:58:58;;;;;;;5.60;1.70;;;;;;;;;;5015783;28;20042;-60
2022/07/06 12:01:30;;;;;;;0.93;0.60;;;;;;;;;;5015598;28;20481;-60
2022/07/06 12:04:00;;;;;;;2.30;1.47;;;;;;;;;;5015859;28;20097;-60
2022/07/06 12:06:28;;;;;;;1.80;0.63;;;;;;;;;;5015932;28;20065;-59
2022/07/06 12:08:56;;;;;;;0.87;0.30;;;;;;;;;;5014314;28;20018;-59
2022/07/06 12:11:33;;;;;;;1.13;0.67;;;;;;;;;;5010282;28;20377;-60
2022/07/06 12:14:16;;;;;;;1.63;0.50;;;;;;;;;;5010078;28;20500;-60
2022/07/06 12:16:43;;;;;;;4.47;1.00;;;;;;;;;;5010220;28;20084;-60
2022/07/06 12:19:11;;;;;;;0.63;0.60;;;;;;;;;;5012119;28;20053;-60
2022/07/06 12:21:48;;;;;;;0.93;0.70;;;;;;;;;;5015178;28;20041;-60
2022/07/06 12:24:19;;;;;;;0.77;0.70;;;;;;;;;;5015148;28;20104;-59
2022/07/06 12:26:46;;;;;;;2.90;1.40;;;;;;;;;;5015587;28;20033;-60
2022/07/06 12:29:13;;;;;;;1.97;1.30;;;;;;;;;;5015400;28;20033;-61
2022/07/06 12:31:40;;;;;;;1.23;1.13;;;;;;;;;;5012155;28;20025;-60
2022/07/06 12:34:12;;;;;;;2.80;1.03;;;;;;;;;;5009860;28;20477;-60
2022/07/06 12:36:55;;;;;;;1.30;0.73;;;;;;;;;;5009817;28;20028;-60
2022/07/06 12:39:26;;;;;;;1.43;1.03;;;;;;;;;;5008607;28;20042;-60
2022/07/06 12:41:53;;;;;;;6.10;2.17;;;;;;;;;;5011450;28;20063;-60
2022/07/06 12:44:24;;;;;;;2.60;1.87;;;;;;;;;;5015017;28;20029;-60
2022/07/06 12:46:51;;;;;;;3.40;1.60;;;;;;;;;;5014943;28;20022;-60
2022/07/06 12:49:20;;;;;;;1.00;0.83;;;;;;;;;;5015002;28;20033;-60
2022/07/06 12:52:00;;;;;;;1.50;0.93;;;;;;;;;;5014919;28;20034;-60
2022/07/06 12:54:41;;;;;;;7.57;1.80;;;;;;;;;;5010818;28;20091;-60
2022/07/06 12:57:14;;;;;;;0.77;0.77;;;;;;;;;;5008933;28;20037;-60
2022/07/06 12:59:45;;;;;;;3.50;1.87;;;;;;;;;;5009301;28;20045;-60
2022/07/06 13:02:22;;;;;;;0.73;0.73;;;;;;;;;;5009296;28;20057;-60
2022/07/06 13:04:56;;;;;;;2.30;1.53;;;;;;;;;;5013867;28;20026;-60
2022/07/06 13:07:23;;;;;;;1.67;0.95;;;;;;;;;;5014111;28;20026;-60
2022/07/06 13:09:50;;;;;;;1.57;0.83;;;;;;;;;;5014191;28;20034;-60
2022/07/06 13:12:16;;;;;;;5.37;1.77;;;;;;;;;;5014736;28;20037;-59
2022/07/06 13:14:43;;;;;;;1.87;1.30;;;;;;;;;;5014450;28;20084;-60
2022/07/06 13:17:09;;;;;;;3.07;1.43;;;;;;;;;;5009089;28;20029;-60
2022/07/06 13:19:36;;;;;;;2.37;1.20;;;;;;;;;;5008764;28;20482;-60
2022/07/06 13:22:03;;;;;;;2.53;1.60;;;;;;;;;;5008321;28;20034;-60
2022/07/06 13:24:30;;;;;;;2.77;1.13;;;;;;;;;;5008478;28;20045;-60
2022/07/06 13:26:57;;;;;;;1.77;1.00;;;;;;;;;;5013205;28;20025;-59
2022/07/06 13:29:24;;;;;;;3.23;1.50;;;;;;;;;;5014238;28;20029;-60
2022/07/06 13:31:51;;;;;;;1.47;1.37;;;;;;;;;;5014262;28;20133;-60
2022/07/06 13:34:18;;;;;;;2.10;1.57;;;;;;;;;;5014219;28;20030;-60
2022/07/06 13:36:44;;;;;;;3.90;1.20;;;;;;;;;;5014186;28;20033;-59
2022/07/06 13:39:12;;;;;;;3.50;1.67;;;;;;;;;;5008688;28;20111;-60
2022/07/06 13:41:38;;;;;;;6.33;2.07;;;;;;;;;;5008711;28;20089;-60
2022/07/06 13:44:07;;;;;;;5.93;1.40;;;;;;;;;;5008802;28;20488;-60
2022/07/06 13:46:33;;;;;;;2.63;1.27;;;;;;;;;;5008462;28;20049;-60
2022/07/06 13:49:00;;;;;;;12.60;2.17;;;;;;;;;;5012691;28;20040;-60
2022/07/06 13:51:28;;;;;;;3.97;1.40;;;;;;;;;;5012485;28;20033;-60
2022/07/06 13:53:55;;;;;;;1.47;1.23;;;;;;;;;;5013291;28;20555;-60
2022/07/06 13:56:21;;;;;;;19.37;2.60;;;;;;;;;;5013801;28;20018;-60
2022/07/06 13:58:48;;;;;;;4.83;2.30;;;;;;;;;;5013227;28;20117;-60
2022/07/06 14:01:15;;;;;;;14.17;3.27;;;;;;;;;;5008899;28;20033;-60
2022/07/06 14:03:41;;;;;;;4.43;2.40;;;;;;;;;;5008316;28;20026;-60
2022/07/06 14:06:08;;;;;;;2.87;1.90;;;;;;;;;;5007975;28;20018;-60
2022/07/06 14:08:36;;;;;;;2.20;1.27;;;;;;;;;;5007850;28;20034;-60
2022/07/06 14:11:03;;;;;;;3.83;2.23;;;;;;;;;;5012013;28;20026;-60
2022/07/06 14:13:30;;;;;;;5.13;2.87;;;;;;;;;;5013523;28;20030;-60
2022/07/06 14:15:57;;;;;;;4.40;2.37;;;;;;;;;;5012972;28;20531;-60
2022/07/06 14:18:24;;;;;;;4.93;1.93;;;;;;;;;;5013248;28;20385;-60
2022/07/06 14:20:51;;;;;;;1.47;1.13;;;;;;;;;;5013357;28;20049;-60
2022/07/06 14:23:18;;;;;;;4.10;1.63;;;;;;;;;;5008574;28;20022;-60
2022/07/06 14:25:45;;;;;;;4.90;2.87;;;;;;;;;;5008083;28;20505;-61
2022/07/06 14:28:16;;;;;;;5.63;1.97;;;;;;;;;;5007477;28;20161;-60
2022/07/06 14:30:44;;;;;;;6.27;1.03;;;;;;;;;;5007733;28;20124;-61
2022/07/06 14:33:12;;;;;;;4.57;1.83;;;;;;;;;;5011560;28;20030;-60
2022/07/06 14:35:40;;;;;;;5.93;3.33;;;;;;;;;;5013017;28;20105;-60
2022/07/06 14:38:07;;;;;;;10.40;3.03;;;;;;;;;;5012618;28;20116;-60
2022/07/06 14:40:34;;;;;;;29.03;2.23;;;;;;;;;;5013006;28;20037;-60
2022/07/06 14:43:01;;;;;;;3.90;1.57;;;;;;;;;;5012843;28;20478;-61
2022/07/06 14:45:28;;;;;;;5.63;1.80;;;;;;;;;;5008472;28;20030;-60
2022/07/06 14:47:55;;;;;;;6.13;2.20;;;;;;;;;;5007530;28;20025;-61
2022/07/06 14:50:24;;;;;;;3.53;1.30;;;;;;;;;;5007320;28;20022;-60
2022/07/06 14:52:52;;;;;;;3.40;1.57;;;;;;;;;;5006864;28;20033;-62